Latest Weather Observations for Jandakot

IDW60901

Issued at 1:41 pm WST Sunday 26 February 2017 (issued every 10 minutes, with the page automatically refreshed every 10 minutes)

About weather observations | Map of Perth area stations | Latest observations for Perth area | Other Formats
Station Details ID: 009172 Name: JANDAKOT AERO Lat: -32.10 Lon: 115.88 Height: 30.0 m
Data from the previous 72 hours. | See also: Recent months at Jandakot
Date/Time
WST
Temp
°C
App
Temp
°C
Dew
Point
°C
Rel
Hum
%
Delta-T
°C
Wind Press
QNH
hPa
Press
MSL
hPa
Rain since
9am
mm
Dir  Spd
km/h
Gust
km/h
Spd
kts
Gust
kts
26/01:30pm 26.9 24.9 16.4 52 6.5 W 22 28 12 15 1012.1 1011.9 0.0
26/01:00pm 26.4 24.8 16.5 54 6.1 WSW 20 28 11 15 1012.2 1012.0 0.0
26/12:30pm 26.5 24.8 17.2 56 5.8 WSW 22 32 12 17 1012.2 1012.0 0.0
26/12:00pm 28.1 26.6 17.7 53 6.6 W 22 28 12 15 1012.1 1011.9 0.0
26/11:30am 29.6 28.8 14.0 38 9.4 W 11 19 6 10 1012.1 1011.9 0.0
26/11:00am 28.2 28.8 15.7 46 7.7 S 7 13 4 7 1012.1 1011.9 0.0
26/10:30am 26.6 27.8 16.0 52 6.5 WSW 4 7 2 4 1012.4 1012.2 0.0
26/10:00am 25.7 26.1 16.3 56 5.8 SSW 9 15 5 8 1012.3 1012.1 0.0
26/09:30am 24.7 24.5 16.6 60 5.0 SSW 13 17 7 9 1012.1 1011.9 0.0
26/09:00am 23.3 23.8 16.6 66 4.1 S 9 13 5 7 1012.3 1012.1 0.0
26/08:30am 22.5 22.1 16.1 67 3.9 SSW 13 19 7 10 1012.3 1012.1 0.0
26/08:00am 21.0 20.6 15.3 70 3.4 WSW 11 13 6 7 1012.1 1011.9 0.0
26/07:30am 19.2 18.7 15.8 81 2.0 NNW 13 22 7 12 1012.2 1012.0 0.0
26/07:00am 18.1 19.9 16.4 90 1.0 ESE 2 7 1 4 1011.5 1011.3 0.0
26/06:30am 17.0 17.2 15.8 93 0.7 SSW 9 11 5 6 1011.0 1010.8 0.0
26/06:00am 17.1 17.4 15.9 93 0.7 WSW 9 13 5 7 1010.7 1010.5 0.0
26/05:30am 17.1 17.8 16.1 94 0.6 S 7 9 4 5 1010.5 1010.3 0.0
26/05:00am 17.6 17.3 16.4 93 0.7 SE 13 20 7 11 1010.3 1010.1 0.0
26/04:30am 18.2 18.3 16.5 90 1.0 SSE 11 13 6 7 1010.9 1010.7 0.0
26/04:00am 19.1 18.0 17.3 89 1.1 SSW 19 28 10 15 1010.9 1010.7 0.0
26/03:30am 18.3 19.7 17.3 94 0.6 SSE 6 9 3 5 1011.0 1010.8 0.0
26/03:00am 19.1 20.6 18.0 93 0.7 S 7 11 4 6 1011.1 1010.9 0.0
26/02:30am 19.1 21.7 17.6 91 0.9 CALM 0 6 0 3 1011.4 1011.2 0.0
26/02:00am 20.3 22.1 18.4 89 1.2 S 6 7 3 4 1011.4 1011.2 0.0
26/01:30am 20.8 22.2 18.7 88 1.3 SSW 9 11 5 6 1011.5 1011.3 0.0
26/01:00am 21.2 21.9 18.8 86 1.5 SSW 13 19 7 10 1011.6 1011.4 0.0
26/12:30am 21.4 22.0 18.5 83 1.8 SW 13 19 7 10 1011.6 1011.4 0.0
26/12:00am 22.0 21.8 17.5 75 2.8 SW 15 20 8 11 1011.6 1011.4 0.0
 
Date/Time
WST
Temp
°C
App
Temp
°C
Dew
Point
°C
Rel
Hum
%
Delta-T
°C
Wind Press
QNH
hPa
Press
MSL
hPa
Rain since
9am
mm
Dir  Spd
km/h
Gust
km/h
Spd
kts
Gust
kts
25/11:30pm 22.7 22.0 16.3 67 3.9 SSW 15 20 8 11 1011.5 1011.3 0.0
25/11:00pm 23.4 22.2 16.0 63 4.5 SW 17 22 9 12 1011.7 1011.5 0.0
25/10:30pm 24.2 22.5 13.6 51 6.2 SW 15 20 8 11 1011.9 1011.7 0.0
25/10:00pm 24.6 23.3 12.6 47 6.9 SSW 11 13 6 7 1011.7 1011.5 0.0
25/09:30pm 25.1 23.8 12.4 45 7.3 SSW 11 13 6 7 1012.0 1011.8 0.0
25/09:00pm 26.3 24.5 12.1 41 8.2 SSW 13 15 7 8 1011.8 1011.6 0.0
25/08:30pm 26.3 24.1 12.1 41 8.2 SW 15 17 8 9 1011.6 1011.4 0.0
25/08:00pm 27.4 25.4 11.5 37 9.1 SW 13 17 7 9 1011.6 1011.4 0.0
25/07:30pm 28.7 26.5 12.0 35 9.7 SW 15 20 8 11 1011.3 1011.1 0.0
25/07:00pm 30.7 28.4 11.7 31 11.1 S 15 19 8 10 1011.1 1010.9 0.0
25/06:30pm 32.5 30.6 11.8 28 12.2 S 13 17 7 9 1011.1 1010.9 0.0
25/06:00pm 33.7 31.4 10.4 24 13.5 SSW 13 20 7 11 1011.1 1010.9 0.0
25/05:30pm 34.6 32.1 12.2 25 13.4 SW 17 22 9 12 1011.1 1010.9 0.0
25/05:00pm 34.4 30.3 11.3 24 13.6 SW 24 30 13 16 1011.2 1011.0 0.0
25/04:30pm 35.3 32.3 12.6 25 13.7 WSW 20 26 11 14 1011.3 1011.1 0.0
25/04:00pm 36.4 32.2 9.7 19 15.5 WSW 22 28 12 15 1011.5 1011.3 0.0
25/03:30pm 38.4 35.5 6.5 14 17.8 NW 11 24 6 13 1011.6 1011.4 0.0
25/03:00pm 38.2 34.6 3.0 11 18.6 NE 11 17 6 9 1011.9 1011.7 0.0
25/02:30pm 38.3 36.0 5.5 13 18.0 ENE 7 17 4 9 1012.4 1012.2 0.0
25/02:00pm 37.8 34.4 4.0 12 18.1 ENE 11 17 6 9 1012.8 1012.6 0.0
25/01:30pm 37.6 33.2 2.7 11 18.3 ENE 15 22 8 12 1013.2 1013.0 0.0
25/01:00pm 37.4 33.7 6.3 15 17.2 NNE 15 26 8 14 1013.7 1013.5 0.0
25/12:30pm 37.1 32.1 3.8 12 17.7 NNE 19 24 10 13 1014.0 1013.8 0.0
25/12:00pm 37.2 33.0 8.2 17 16.5 NNE 20 30 11 16 1014.3 1014.1 0.0
25/11:30am 36.2 30.7 7.7 17 16.0 NNE 26 33 14 18 1014.7 1014.5 0.0
25/11:00am 35.0 29.9 7.5 18 15.3 NE 24 32 13 17 1015.2 1015.0 0.0
25/10:30am 34.1 29.2 8.5 20 14.4 NNE 24 35 13 19 1015.4 1015.3 0.0
25/10:00am 33.0 27.6 8.0 21 13.9 NE 26 35 14 19 1015.8 1015.7 0.0
25/09:30am 31.7 26.7 8.2 23 13.0 NE 24 33 13 18 1015.9 1015.8 0.0
25/09:00am 30.2 25.2 8.2 25 12.1 NE 24 30 13 16 1016.1 1016.0 0.0
25/08:30am 28.9 23.9 7.9 26 11.4 NE 24 30 13 16 1016.1 1016.0 0.0
25/08:00am 27.7 22.5 7.3 27 10.9 NE 24 33 13 18 1016.2 1016.1 0.0
25/07:30am 26.7 21.0 6.7 28 10.5 NE 26 35 14 19 1016.1 1016.0 0.0
25/07:00am 24.8 21.0 7.6 33 9.1 NE 17 22 9 12 1016.0 1015.9 0.0
25/06:30am 21.5 18.6 8.1 42 7.0 NE 13 13 7 7 1015.9 1015.8 0.0
25/06:00am 21.8 19.0 7.0 38 7.6 ENE 11 13 6 7 1015.6 1015.5 0.0
25/05:30am 22.2 18.5 6.5 36 8.0 ENE 15 17 8 9 1015.5 1015.4 0.0
25/05:00am 22.5 19.3 6.7 36 8.1 ENE 13 17 7 9 1015.2 1015.0 0.0
25/04:30am 22.2 19.1 7.1 37 7.8 ENE 13 15 7 8 1015.2 1015.0 0.0
25/04:00am 23.4 19.3 6.4 33 8.7 ENE 17 20 9 11 1015.2 1015.0 0.0
25/03:30am 19.3 17.2 8.3 49 5.7 E 9 13 5 7 1015.3 1015.1 0.0
25/03:00am 20.1 18.0 8.1 46 6.2 E 9 11 5 6 1015.6 1015.5 0.0
25/02:30am 20.1 17.1 7.9 45 6.3 ESE 13 13 7 7 1015.7 1015.6 0.0
25/02:00am 20.2 17.8 8.8 48 6.0 ESE 11 13 6 7 1016.0 1015.9 0.0
25/01:30am 20.5 19.1 9.7 50 5.8 E 7 11 4 6 1016.4 1016.3 0.0
25/01:00am 20.7 18.6 9.7 49 5.9 E 11 13 6 7 1016.6 1016.5 0.0
25/12:30am 21.6 20.9 10.0 47 6.3 E 4 9 2 5 1016.9 1016.8 0.0
25/12:00am 21.7 21.0 10.1 47 6.3 SE 4 7 2 4 1017.1 1017.0 0.0
 
Date/Time
WST
Temp
°C
App
Temp
°C
Dew
Point
°C
Rel
Hum
%
Delta-T
°C
Wind Press
QNH
hPa
Press
MSL
hPa
Rain since
9am
mm
Dir  Spd
km/h
Gust
km/h
Spd
kts
Gust
kts
24/11:30pm 21.3 20.2 10.0 48 6.1 SSE 6 9 3 5 1017.2 1017.1 0.0
24/11:00pm 21.3 19.6 10.0 48 6.1 SSE 9 11 5 6 1017.3 1017.2 0.0
24/10:30pm 22.9 21.0 10.5 45 6.8 S 11 13 6 7 1017.7 1017.6 0.0
24/10:00pm 23.5 21.1 10.0 42 7.4 SE 13 13 7 7 1017.7 1017.6 0.0
24/09:30pm 24.0 21.4 9.2 39 8.0 SE 13 13 7 7 1017.8 1017.7 0.0
24/09:00pm 24.2 21.3 9.5 39 8.0 ESE 15 15 8 8 1017.7 1017.6 0.0
24/08:30pm 25.7 23.1 9.5 36 8.9 ESE 13 15 7 8 1017.6 1017.5 0.0
24/08:00pm 27.3 24.2 7.4 28 10.6 ESE 13 15 7 8 1017.2 1017.1 0.0
24/07:30pm 28.7 26.1 7.6 26 11.4 E 11 13 6 7 1016.9 1016.8 0.0
24/07:00pm 30.8 28.1 7.5 23 12.7 E 11 13 6 7 1016.8 1016.7 0.0
24/06:30pm 32.9 29.1 5.9 18 14.5 ENE 15 20 8 11 1016.5 1016.4 0.0
24/06:00pm 34.0 29.8 5.5 17 15.3 ENE 17 26 9 14 1016.4 1016.3 0.0
24/05:30pm 34.8 30.5 5.1 15 15.9 E 17 24 9 13 1016.5 1016.4 0.0
24/05:00pm 35.3 31.1 5.5 15 16.1 NE 17 22 9 12 1016.6 1016.5 0.0
24/04:30pm 35.6 31.3 5.1 15 16.4 NE 17 22 9 12 1016.7 1016.6 0.0
24/04:00pm 35.6 32.1 5.4 15 16.3 NE 13 20 7 11 1016.7 1016.6 0.0
24/03:30pm 35.7 31.3 4.9 15 16.5 ENE 17 32 9 17 1017.0 1016.9 0.0
24/03:00pm 35.3 30.8 6.1 16 15.9 ENE 19 26 10 14 1017.5 1017.4 0.0
24/02:30pm 35.6 30.9 6.1 16 16.1 ENE 20 26 11 14 1017.9 1017.8 0.0
24/02:00pm 35.3 31.9 7.8 18 15.4 NE 15 28 8 15 1018.3 1018.2 0.0
24/01:30pm 35.0 31.3 8.1 19 15.1 ENE 17 32 9 17 1018.7 1018.6 0.0
24/01:00pm 34.6 30.4 7.6 19 15.0 NE 19 26 10 14 1019.0 1018.9 0.0
24/12:30pm 33.5 28.1 8.2 21 14.1 ENE 26 35 14 19 1019.3 1019.2 0.0
24/12:00pm 33.4 29.1 9.5 23 13.6 ENE 22 32 12 17 1019.6 1019.5 0.0
24/11:30am 32.7 27.7 9.4 23 13.2 NE 26 33 14 18 1019.9 1019.8 0.0
24/11:00am 31.7 26.3 9.6 25 12.5 NE 28 37 15 20 1020.3 1020.2 0.0
24/10:30am 30.8 26.6 11.2 30 11.3 ENE 24 32 13 17 1020.6 1020.5 0.0
24/10:00am 29.5 25.3 11.0 31 10.6 NE 24 35 13 19 1021.1 1021.0 0.0
24/09:30am 28.5 24.8 11.4 34 9.8 ENE 22 28 12 15 1021.1 1021.0 0.0
24/09:00am 26.8 23.1 11.5 38 8.7 ENE 22 30 12 16 1021.3 1021.2 0.0
24/08:30am 25.1 20.5 11.2 41 7.8 ENE 26 35 14 19 1021.1 1021.0 0.0
24/08:00am 24.5 21.3 11.8 45 7.2 NE 20 30 11 16 1021.2 1021.1 0.0
24/07:30am 23.3 20.6 11.7 48 6.5 ENE 17 24 9 13 1021.2 1021.1 0.0
24/07:00am 22.2 19.5 11.8 51 5.8 ENE 17 26 9 14 1021.1 1021.0 0.0
24/06:30am 21.0 18.7 11.8 55 5.1 ENE 15 22 8 12 1021.0 1020.9 0.0
24/06:00am 19.6 19.0 12.2 62 4.1 E 7 11 4 6 1020.8 1020.7 0.0
24/05:30am 20.0 17.9 12.5 62 4.2 ESE 15 20 8 11 1020.6 1020.5 0.0
24/05:00am 20.6 17.0 12.0 57 4.8 ESE 22 28 12 15 1020.2 1020.1 0.0
24/04:30am 20.6 16.5 11.3 55 5.1 E 24 30 13 16 1020.1 1020.0 0.0
24/04:00am 20.9 16.6 10.6 51 5.6 ESE 24 32 13 17 1019.9 1019.8 0.0
24/03:30am 21.4 17.3 10.1 48 6.1 E 22 30 12 16 1020.2 1020.1 0.0
24/03:00am 21.1 17.3 9.0 46 6.4 ESE 19 26 10 14 1020.1 1020.0 0.0
24/02:30am 21.4 17.2 8.4 43 6.8 E 20 30 11 16 1020.1 1020.0 0.0
24/02:00am 20.8 17.2 8.3 44 6.5 E 17 24 9 13 1020.2 1020.1 0.0
24/01:30am 18.8 15.1 9.3 54 5.0 ESE 19 22 10 12 1020.4 1020.3 0.0
24/01:00am 16.1 15.9 13.6 85 1.4 SSE 7 9 4 5 1020.6 1020.5 0.0
24/12:30am 16.4 16.5 13.9 85 1.4 SE 6 7 3 4 1020.6 1020.5 0.0
24/12:00am 17.0 16.9 13.8 81 1.8 SSE 7 9 4 5 1020.7 1020.6 0.0
 
Date/Time
WST
Temp
°C
App
Temp
°C
Dew
Point
°C
Rel
Hum
%
Delta-T
°C
Wind Press
QNH
hPa
Press
MSL
hPa
Rain since
9am
mm
Dir  Spd
km/h
Gust
km/h
Spd
kts
Gust
kts
23/11:30pm 17.9 17.8 14.0 78 2.2 SSE 7 11 4 6 1020.9 1020.8 0.0
23/11:00pm 18.7 17.6 14.2 75 2.6 S 13 15 7 8 1021.1 1021.0 0.0
23/10:30pm 19.3 17.8 14.3 73 2.9 S 15 19 8 10 1021.2 1021.1 0.0
23/10:00pm 19.8 17.9 14.3 70 3.2 S 17 20 9 11 1021.3 1021.2 0.0
23/09:30pm 20.6 18.6 15.0 70 3.3 S 19 24 10 13 1021.5 1021.4 0.0
23/09:00pm 21.0 20.2 16.2 74 2.9 SSW 15 20 8 11 1021.3 1021.2 0.0
23/08:30pm 21.6 20.3 15.9 70 3.4 SSW 17 24 9 13 1021.2 1021.1 0.0
23/08:00pm 22.1 20.7 15.6 66 3.9 SSW 17 20 9 11 1020.7 1020.6 0.0
23/07:30pm 22.5 21.9 15.7 65 4.1 SW 13 17 7 9 1020.5 1020.4 0.0
23/07:00pm 23.7 21.9 15.4 59 5.0 SW 19 22 10 12 1020.0 1019.9 0.0
23/06:30pm 25.3 23.7 15.0 53 6.2 SW 17 20 9 11 1019.7 1019.6 0.0
23/06:00pm 26.8 24.3 14.2 46 7.5 SW 20 24 11 13 1019.3 1019.2 0.0
23/05:30pm 27.6 25.3 14.0 43 8.1 SW 19 24 10 13 1019.2 1019.1 0.0
23/05:00pm 28.0 25.5 14.1 42 8.3 SW 20 30 11 16 1019.1 1019.0 0.0
23/04:30pm 28.4 25.4 13.6 40 8.8 SW 22 30 12 16 1019.0 1018.9 0.0
23/04:00pm 28.7 25.6 14.4 41 8.6 SW 24 28 13 15 1019.0 1018.9 0.0
23/03:30pm 28.5 25.9 16.0 46 7.7 SW 24 30 13 16 1019.1 1019.0 0.0
23/03:00pm 28.3 25.7 15.8 46 7.7 SW 24 33 13 18 1019.4 1019.3 0.0
23/02:30pm 29.4 26.1 14.1 39 9.2 WSW 24 28 13 15 1019.5 1019.4 0.0
23/02:00pm 29.3 26.8 14.2 39 9.1 SW 20 30 11 16 1019.8 1019.7 0.0

Latest Capital City Observations: Canberra | Sydney | Melbourne | Brisbane | Adelaide | Perth | Hobart | Darwin

Other Formats:

Comma delimited format used in spreadsheet applications
http://www.bom.gov.au/fwo/IDW60901/IDW60901.94609.axf

JavaScript Object Notation format (JSON) in row-major order
http://www.bom.gov.au/fwo/IDW60901/IDW60901.94609.json